Time;durP1;ratioP1;P1;durP2;ratioP2;P2;SDS_P1;SDS_P2;PMS_P1;PMS_P2;Temp;Humidity;BMP_temperature;BMP_pressure;BME280_temperature;BME280_humidity;BME280_pressure;Samples;Min_cycle;Max_cycle;Signal;HPM_P1;HPM_P2
2024/02/27 00:01:51;;;;;;;8.48;3.13;;;;;;;;;;5036776;28;20041;-68
2024/02/27 00:04:17;;;;;;;9.98;3.22;;;;;;;;;;5020571;28;20044;-68
2024/02/27 00:06:43;;;;;;;23.30;3.45;;;;;;;;;;5025925;28;20042;-68
2024/02/27 00:09:14;;;;;;;7.65;2.70;;;;;;;;;;5018248;28;20140;-68
2024/02/27 00:11:43;;;;;;;5.50;2.70;;;;;;;;;;5016808;28;20133;-68
2024/02/27 00:14:09;;;;;;;6.82;3.25;;;;;;;;;;5015111;28;20050;-68
2024/02/27 00:16:35;;;;;;;9.40;2.78;;;;;;;;;;5018531;28;20041;-68
2024/02/27 00:19:02;;;;;;;7.30;2.83;;;;;;;;;;5014745;28;20536;-68
2024/02/27 00:21:29;;;;;;;9.57;3.83;;;;;;;;;;5015998;28;20160;-68
2024/02/27 00:23:55;;;;;;;6.50;3.17;;;;;;;;;;5014946;28;20045;-68
2024/02/27 00:26:21;;;;;;;8.88;3.30;;;;;;;;;;5016723;28;20547;-68
2024/02/27 00:28:47;;;;;;;6.57;3.08;;;;;;;;;;5018769;28;20109;-68
2024/02/27 00:31:14;;;;;;;7.30;3.40;;;;;;;;;;5023960;28;20060;-68
2024/02/27 00:33:40;;;;;;;7.75;3.15;;;;;;;;;;5022621;28;20120;-68
2024/02/27 00:36:06;;;;;;;10.27;3.33;;;;;;;;;;5020322;28;20442;-68
2024/02/27 00:38:33;;;;;;;9.07;3.45;;;;;;;;;;5023710;28;20139;-68
2024/02/27 00:40:59;;;;;;;10.40;3.55;;;;;;;;;;5022525;28;20167;-68
2024/02/27 00:43:25;;;;;;;9.90;3.15;;;;;;;;;;5016439;28;20056;-68
2024/02/27 00:45:51;;;;;;;7.38;2.83;;;;;;;;;;5017257;28;20088;-68
2024/02/27 00:48:17;;;;;;;11.20;3.58;;;;;;;;;;5016107;28;20058;-68
2024/02/27 00:50:45;;;;;;;7.93;3.35;;;;;;;;;;5017216;28;20481;-68
2024/02/27 00:53:11;;;;;;;6.97;2.95;;;;;;;;;;5014277;28;20045;-68
2024/02/27 00:55:37;;;;;;;8.68;2.75;;;;;;;;;;5018084;28;20049;-68
2024/02/27 00:58:03;;;;;;;11.48;3.03;;;;;;;;;;5010561;28;20047;-68
2024/02/27 01:00:29;;;;;;;6.70;2.78;;;;;;;;;;5013330;28;20041;-68
2024/02/27 01:02:56;;;;;;;10.73;3.10;;;;;;;;;;4996810;28;20129;-68
2024/02/27 01:05:22;;;;;;;8.48;2.78;;;;;;;;;;5016354;28;20041;-68
2024/02/27 01:07:48;;;;;;;14.23;3.83;;;;;;;;;;5021784;28;20041;-68
2024/02/27 01:10:14;;;;;;;7.47;3.72;;;;;;;;;;5016070;28;20046;-68
2024/02/27 01:12:40;;;;;;;9.27;3.10;;;;;;;;;;5017001;28;20242;-68
2024/02/27 01:15:07;;;;;;;10.23;3.53;;;;;;;;;;5015978;28;20049;-68
2024/02/27 01:17:33;;;;;;;9.15;3.70;;;;;;;;;;5015560;28;20050;-68
2024/02/27 01:19:59;;;;;;;10.55;3.10;;;;;;;;;;5017748;28;20041;-68
2024/02/27 01:22:27;;;;;;;10.45;3.28;;;;;;;;;;5020883;28;20536;-68
2024/02/27 01:24:54;;;;;;;9.45;3.70;;;;;;;;;;5020263;28;20089;-69
2024/02/27 01:27:21;;;;;;;13.55;3.60;;;;;;;;;;5019251;28;21048;-68
2024/02/27 01:29:47;;;;;;;5.32;2.97;;;;;;;;;;5024015;28;20052;-68
2024/02/27 01:32:13;;;;;;;11.70;4.22;;;;;;;;;;5019508;28;20057;-68
2024/02/27 01:34:39;;;;;;;10.20;3.95;;;;;;;;;;5021638;28;20049;-69
2024/02/27 01:37:05;;;;;;;5.97;3.28;;;;;;;;;;5017711;28;20073;-68
2024/02/27 01:39:32;;;;;;;8.10;3.28;;;;;;;;;;5021180;28;20050;-68
2024/02/27 01:41:58;;;;;;;11.60;4.10;;;;;;;;;;5023142;28;20049;-68
2024/02/27 01:44:25;;;;;;;17.58;4.15;;;;;;;;;;5024990;28;20053;-68
2024/02/27 01:46:51;;;;;;;6.68;2.92;;;;;;;;;;5025514;28;20037;-68
2024/02/27 01:49:17;;;;;;;13.80;3.58;;;;;;;;;;5022916;28;20108;-68
2024/02/27 01:51:45;;;;;;;13.27;4.75;;;;;;;;;;5025512;28;20126;-68
2024/02/27 01:54:13;;;;;;;8.05;3.80;;;;;;;;;;5023466;28;20101;-68
2024/02/27 01:56:40;;;;;;;11.23;4.53;;;;;;;;;;5023140;28;20125;-68
2024/02/27 01:59:07;;;;;;;9.52;4.68;;;;;;;;;;5024283;28;20833;-68
2024/02/27 02:01:34;;;;;;;11.50;4.10;;;;;;;;;;5025047;28;20076;-68
2024/02/27 02:04:02;;;;;;;13.68;3.95;;;;;;;;;;5007451;28;20457;-68
2024/02/27 02:06:28;;;;;;;9.00;4.18;;;;;;;;;;5025473;28;20126;-68
2024/02/27 02:08:55;;;;;;;7.05;3.58;;;;;;;;;;5006676;28;20147;-68
2024/02/27 02:11:21;;;;;;;9.45;4.05;;;;;;;;;;5025716;28;20370;-68
2024/02/27 02:13:47;;;;;;;9.80;4.47;;;;;;;;;;5030753;28;20045;-68
2024/02/27 02:16:14;;;;;;;8.98;4.32;;;;;;;;;;5023692;28;20049;-68
2024/02/27 02:18:40;;;;;;;15.40;4.55;;;;;;;;;;5023518;28;20417;-68
2024/02/27 02:21:07;;;;;;;10.70;3.97;;;;;;;;;;5021852;28;20106;-68
2024/02/27 02:23:33;;;;;;;10.73;4.22;;;;;;;;;;5023732;28;20045;-68
2024/02/27 02:26:00;;;;;;;11.38;5.85;;;;;;;;;;5024858;28;20140;-68
2024/02/27 02:28:26;;;;;;;9.43;4.03;;;;;;;;;;5022833;28;20060;-68
2024/02/27 02:30:53;;;;;;;11.95;4.95;;;;;;;;;;5039464;28;20062;-68
2024/02/27 02:33:19;;;;;;;10.65;4.75;;;;;;;;;;5024011;28;20434;-68
2024/02/27 02:35:46;;;;;;;8.55;4.25;;;;;;;;;;5023444;28;20079;-68
2024/02/27 02:38:12;;;;;;;16.00;6.22;;;;;;;;;;5021869;28;20082;-68
2024/02/27 02:40:38;;;;;;;9.88;4.47;;;;;;;;;;5027841;28;20125;-68
2024/02/27 02:43:04;;;;;;;7.97;4.38;;;;;;;;;;5020976;28;20094;-68
2024/02/27 02:45:30;;;;;;;13.38;4.85;;;;;;;;;;5025069;28;20120;-68
2024/02/27 02:47:57;;;;;;;10.77;4.88;;;;;;;;;;5023510;28;20133;-68
2024/02/27 02:50:23;;;;;;;12.88;5.20;;;;;;;;;;5027777;28;20049;-68
2024/02/27 02:52:49;;;;;;;13.50;5.40;;;;;;;;;;5028884;28;20103;-68
2024/02/27 02:55:16;;;;;;;14.80;5.40;;;;;;;;;;5027054;28;20525;-68
2024/02/27 02:57:42;;;;;;;11.95;6.05;;;;;;;;;;5021811;28;20045;-68
2024/02/27 03:00:09;;;;;;;13.93;6.13;;;;;;;;;;5025118;28;20059;-68
2024/02/27 03:02:35;;;;;;;12.55;5.50;;;;;;;;;;5029567;28;20042;-68
2024/02/27 03:05:02;;;;;;;10.93;5.43;;;;;;;;;;5028812;28;20057;-68
2024/02/27 03:07:28;;;;;;;10.27;5.70;;;;;;;;;;5028336;28;20404;-68
2024/02/27 03:09:55;;;;;;;13.00;5.50;;;;;;;;;;5028520;28;20076;-68
2024/02/27 03:12:23;;;;;;;10.95;5.53;;;;;;;;;;5034311;28;20068;-68
2024/02/27 03:14:49;;;;;;;13.35;6.05;;;;;;;;;;5035645;28;20060;-68
2024/02/27 03:17:16;;;;;;;12.40;5.75;;;;;;;;;;5034072;28;20037;-68
2024/02/27 03:19:42;;;;;;;13.23;5.45;;;;;;;;;;5033016;28;20081;-68
2024/02/27 03:22:09;;;;;;;11.80;6.10;;;;;;;;;;5026654;28;20041;-66
2024/02/27 03:24:37;;;;;;;11.13;5.75;;;;;;;;;;5032452;28;20432;-67
2024/02/27 03:27:03;;;;;;;16.35;6.25;;;;;;;;;;5043295;28;20339;-68
2024/02/27 03:29:30;;;;;;;13.50;5.72;;;;;;;;;;5041133;28;20060;-67
2024/02/27 03:31:56;;;;;;;11.27;5.82;;;;;;;;;;5041264;28;20065;-68
2024/02/27 03:34:24;;;;;;;14.93;6.38;;;;;;;;;;5039562;28;20439;-68
2024/02/27 03:36:50;;;;;;;12.45;6.35;;;;;;;;;;5036961;28;20115;-68
2024/02/27 03:39:16;;;;;;;14.88;6.53;;;;;;;;;;5040348;28;20092;-67
2024/02/27 03:41:43;;;;;;;11.85;5.05;;;;;;;;;;5023450;28;20048;-69
2024/02/27 03:44:09;;;;;;;11.07;5.40;;;;;;;;;;5042248;28;20397;-68
2024/02/27 03:46:35;;;;;;;11.43;4.70;;;;;;;;;;5037625;28;20053;-68
2024/02/27 03:49:02;;;;;;;12.90;5.38;;;;;;;;;;5039706;28;20203;-68
2024/02/27 03:51:28;;;;;;;12.32;3.90;;;;;;;;;;5039219;28;20095;-69
2024/02/27 03:53:54;;;;;;;12.93;5.63;;;;;;;;;;5033505;28;20048;-68
2024/02/27 03:56:20;;;;;;;14.05;5.15;;;;;;;;;;5032540;28;20064;-68
2024/02/27 03:58:46;;;;;;;14.10;4.85;;;;;;;;;;5015007;28;20080;-68
2024/02/27 04:01:17;;;;;;;11.48;5.50;;;;;;;;;;5029264;28;20095;-68
2024/02/27 04:03:43;;;;;;;12.30;5.25;;;;;;;;;;5027647;28;20505;-68
2024/02/27 04:06:11;;;;;;;9.68;4.85;;;;;;;;;;5042262;28;20053;-68
2024/02/27 04:08:38;;;;;;;11.93;4.97;;;;;;;;;;5024161;28;20045;-68
2024/02/27 04:11:04;;;;;;;9.02;4.40;;;;;;;;;;5031859;28;20148;-68
2024/02/27 04:13:30;;;;;;;14.63;5.15;;;;;;;;;;5029077;28;20140;-68
2024/02/27 04:15:57;;;;;;;11.15;4.72;;;;;;;;;;5028973;28;20040;-68
2024/02/27 04:18:23;;;;;;;10.93;4.85;;;;;;;;;;5028756;28;21290;-68
2024/02/27 04:20:49;;;;;;;11.75;4.40;;;;;;;;;;5029191;28;20134;-68
2024/02/27 04:23:15;;;;;;;11.10;4.53;;;;;;;;;;5029400;28;20090;-68
2024/02/27 04:25:42;;;;;;;10.07;4.38;;;;;;;;;;5029794;28;20492;-68
2024/02/27 04:28:08;;;;;;;10.45;4.65;;;;;;;;;;5024467;28;20107;-68
2024/02/27 04:30:34;;;;;;;11.88;4.63;;;;;;;;;;5026204;28;20045;-68
2024/02/27 04:33:00;;;;;;;11.55;4.38;;;;;;;;;;5027386;28;20044;-68
2024/02/27 04:35:27;;;;;;;8.85;4.13;;;;;;;;;;5027248;28;20057;-68
2024/02/27 04:37:53;;;;;;;13.68;5.18;;;;;;;;;;5025313;28;20048;-68
2024/02/27 04:40:19;;;;;;;10.95;4.57;;;;;;;;;;5025146;28;20485;-68
2024/02/27 04:42:45;;;;;;;12.27;4.70;;;;;;;;;;5032410;28;20128;-68
2024/02/27 04:45:11;;;;;;;12.63;4.38;;;;;;;;;;5028891;28;20080;-68
2024/02/27 04:47:38;;;;;;;17.35;5.13;;;;;;;;;;5032739;28;20441;-68
2024/02/27 04:50:04;;;;;;;11.05;4.13;;;;;;;;;;5027256;28;20547;-68
2024/02/27 04:52:30;;;;;;;13.57;4.10;;;;;;;;;;5025928;28;20536;-68
2024/02/27 04:54:56;;;;;;;14.95;4.97;;;;;;;;;;5024684;28;20071;-68
2024/02/27 04:57:23;;;;;;;16.73;5.15;;;;;;;;;;5027320;28;20128;-68
2024/02/27 04:59:49;;;;;;;10.38;4.15;;;;;;;;;;5027200;28;20068;-68
2024/02/27 05:02:15;;;;;;;12.80;4.03;;;;;;;;;;5040215;28;20033;-68
2024/02/27 05:04:42;;;;;;;12.57;5.72;;;;;;;;;;5022076;28;20041;-68
2024/02/27 05:07:08;;;;;;;8.82;3.70;;;;;;;;;;5029211;28;20397;-68
2024/02/27 05:09:34;;;;;;;12.57;3.80;;;;;;;;;;5037150;28;20068;-68
2024/02/27 05:12:00;;;;;;;8.32;3.92;;;;;;;;;;5034571;28;20037;-68
2024/02/27 05:14:26;;;;;;;10.45;3.65;;;;;;;;;;5039718;28;20099;-68
2024/02/27 05:16:53;;;;;;;12.05;3.90;;;;;;;;;;5036343;28;20368;-68
2024/02/27 05:19:19;;;;;;;9.38;3.63;;;;;;;;;;5029411;28;20048;-68
2024/02/27 05:21:46;;;;;;;9.57;3.63;;;;;;;;;;5036676;28;20493;-68
2024/02/27 05:24:13;;;;;;;10.07;3.55;;;;;;;;;;5037584;28;20041;-68
2024/02/27 05:26:39;;;;;;;10.20;3.30;;;;;;;;;;5038772;28;20048;-68
2024/02/27 05:29:05;;;;;;;9.05;3.88;;;;;;;;;;5038387;28;20159;-68
2024/02/27 05:31:31;;;;;;;8.57;3.45;;;;;;;;;;5040435;28;20105;-68
2024/02/27 05:33:59;;;;;;;10.27;3.45;;;;;;;;;;5038631;28;20076;-68
2024/02/27 05:36:26;;;;;;;10.90;4.13;;;;;;;;;;5019925;28;20117;-68
2024/02/27 05:38:55;;;;;;;10.80;3.72;;;;;;;;;;5036484;28;20049;-68
2024/02/27 05:41:21;;;;;;;12.52;3.80;;;;;;;;;;5030378;28;20040;-68
2024/02/27 05:43:48;;;;;;;8.82;3.83;;;;;;;;;;5036343;28;20046;-68
2024/02/27 05:46:14;;;;;;;8.25;3.58;;;;;;;;;;5039003;28;20033;-68
2024/02/27 05:48:41;;;;;;;9.63;4.50;;;;;;;;;;5037679;28;20048;-68
2024/02/27 05:51:08;;;;;;;12.00;4.25;;;;;;;;;;5033833;28;20056;-68
2024/02/27 05:53:35;;;;;;;9.48;3.95;;;;;;;;;;5037993;28;20514;-68
2024/02/27 05:56:02;;;;;;;12.45;3.55;;;;;;;;;;5035957;28;20038;-68
2024/02/27 05:58:28;;;;;;;14.80;4.28;;;;;;;;;;5035055;28;20508;-68
2024/02/27 06:00:55;;;;;;;9.52;4.40;;;;;;;;;;5030172;28;20045;-68
2024/02/27 06:03:22;;;;;;;10.68;4.03;;;;;;;;;;5034364;28;20138;-68
2024/02/27 06:05:48;;;;;;;6.07;3.40;;;;;;;;;;5030198;28;20061;-68
2024/02/27 06:08:14;;;;;;;12.27;3.63;;;;;;;;;;5033272;28;20076;-68
2024/02/27 06:10:41;;;;;;;7.25;3.53;;;;;;;;;;5033779;28;20446;-68
2024/02/27 06:13:07;;;;;;;7.95;3.80;;;;;;;;;;5031259;28;20033;-68
2024/02/27 06:15:33;;;;;;;7.18;3.33;;;;;;;;;;5031714;28;20045;-68
2024/02/27 06:18:00;;;;;;;9.52;3.45;;;;;;;;;;5049841;28;20507;-68
2024/02/27 06:23:11;;;;;;;10.57;3.00;;;;;;;;;;5030973;28;20404;-68
2024/02/27 06:25:38;;;;;;;9.90;4.20;;;;;;;;;;5032535;28;20104;-68
2024/02/27 06:28:05;;;;;;;13.38;3.95;;;;;;;;;;5032096;28;20434;-67
2024/02/27 06:30:31;;;;;;;12.80;4.63;;;;;;;;;;5030434;28;20386;-68
2024/02/27 06:32:57;;;;;;;16.05;6.10;;;;;;;;;;5032108;28;20135;-68
2024/02/27 06:35:25;;;;;;;18.55;7.25;;;;;;;;;;5028863;28;20125;-68
2024/02/27 06:37:52;;;;;;;17.83;7.63;;;;;;;;;;5030733;28;20041;-68
2024/02/27 06:40:18;;;;;;;11.30;5.15;;;;;;;;;;5027601;28;20216;-68
2024/02/27 06:42:44;;;;;;;11.57;3.90;;;;;;;;;;5012395;28;20520;-68
2024/02/27 06:45:12;;;;;;;10.93;4.63;;;;;;;;;;5034081;28;20087;-68
2024/02/27 06:47:40;;;;;;;13.07;4.00;;;;;;;;;;5030533;28;20085;-68
2024/02/27 06:50:07;;;;;;;9.38;3.28;;;;;;;;;;5029764;28;20081;-68
2024/02/27 06:52:33;;;;;;;7.30;3.30;;;;;;;;;;5026433;28;20445;-68
2024/02/27 06:55:00;;;;;;;12.13;3.50;;;;;;;;;;5019961;28;20094;-68
2024/02/27 06:57:26;;;;;;;9.15;3.72;;;;;;;;;;5027991;28;20501;-68
2024/02/27 06:59:52;;;;;;;10.90;3.50;;;;;;;;;;5030446;28;20103;-68
2024/02/27 07:02:18;;;;;;;10.40;3.90;;;;;;;;;;5026546;28;20120;-67
2024/02/27 07:04:44;;;;;;;6.82;3.60;;;;;;;;;;5031190;28;20389;-68
2024/02/27 07:07:10;;;;;;;11.85;3.65;;;;;;;;;;5028449;28;20078;-68
2024/02/27 07:09:37;;;;;;;8.02;3.42;;;;;;;;;;5022771;28;20363;-72
2024/02/27 07:12:03;;;;;;;11.45;3.70;;;;;;;;;;5038223;28;20033;-68
2024/02/27 07:14:31;;;;;;;8.60;3.15;;;;;;;;;;5041506;28;20049;-68
2024/02/27 07:16:57;;;;;;;6.97;3.63;;;;;;;;;;5039839;28;20162;-68
2024/02/27 07:19:24;;;;;;;9.57;3.75;;;;;;;;;;5032149;28;20480;-68
2024/02/27 07:21:50;;;;;;;9.07;3.13;;;;;;;;;;5029580;28;20052;-68
2024/02/27 07:24:17;;;;;;;8.98;3.55;;;;;;;;;;5029145;28;20132;-83
2024/02/27 07:26:44;;;;;;;11.20;3.55;;;;;;;;;;5027436;28;20114;-69
2024/02/27 07:29:10;;;;;;;10.63;4.00;;;;;;;;;;5010619;28;20075;-69
2024/02/27 07:31:36;;;;;;;7.97;3.60;;;;;;;;;;5021220;28;20550;-68
2024/02/27 07:34:03;;;;;;;7.60;3.53;;;;;;;;;;5033870;28;20041;-69
2024/02/27 07:36:30;;;;;;;9.15;4.53;;;;;;;;;;5031102;28;20045;-69
2024/02/27 07:38:56;;;;;;;15.52;4.18;;;;;;;;;;5023247;28;20080;-69
2024/02/27 07:41:22;;;;;;;9.00;4.35;;;;;;;;;;5026553;28;20075;-69
2024/02/27 07:43:48;;;;;;;8.93;4.80;;;;;;;;;;5029472;28;20186;-69
2024/02/27 07:46:15;;;;;;;9.18;4.43;;;;;;;;;;5026005;28;20049;-69
2024/02/27 07:48:44;;;;;;;9.65;5.20;;;;;;;;;;5029204;28;20089;-69
2024/02/27 07:51:27;;;;;;;9.27;4.32;;;;;;;;;;5023452;28;20386;-70
2024/02/27 07:53:53;;;;;;;10.38;4.80;;;;;;;;;;5023182;28;20053;-70
2024/02/27 07:56:19;;;;;;;12.75;4.93;;;;;;;;;;5020471;28;20090;-69
2024/02/27 07:58:46;;;;;;;8.80;5.00;;;;;;;;;;5020175;28;20147;-68
2024/02/27 08:01:12;;;;;;;11.65;5.38;;;;;;;;;;5012362;28;20113;-69
2024/02/27 08:03:38;;;;;;;8.93;4.47;;;;;;;;;;5017409;28;20064;-68
2024/02/27 08:06:07;;;;;;;17.40;5.97;;;;;;;;;;5018289;28;20524;-69
2024/02/27 08:08:34;;;;;;;12.30;5.20;;;;;;;;;;5020431;28;20517;-68
2024/02/27 08:11:02;;;;;;;12.48;5.22;;;;;;;;;;5015116;28;20064;-66
2024/02/27 08:13:30;;;;;;;11.70;5.32;;;;;;;;;;5022070;28;20053;-68
2024/02/27 08:15:56;;;;;;;12.10;6.03;;;;;;;;;;5026024;28;20134;-65
2024/02/27 08:18:24;;;;;;;9.20;5.13;;;;;;;;;;5027842;28;20136;-65
2024/02/27 08:20:50;;;;;;;13.85;5.70;;;;;;;;;;5040813;28;20063;-66
2024/02/27 08:23:17;;;;;;;11.98;5.72;;;;;;;;;;5023954;28;20076;-65
2024/02/27 08:25:44;;;;;;;10.02;5.43;;;;;;;;;;5025414;28;20460;-67
2024/02/27 08:28:10;;;;;;;8.45;5.57;;;;;;;;;;5021842;28;20067;-66
2024/02/27 08:30:36;;;;;;;12.68;5.05;;;;;;;;;;5018486;28;20057;-66
2024/02/27 08:33:03;;;;;;;12.40;5.45;;;;;;;;;;5024079;28;20033;-68
2024/02/27 08:35:30;;;;;;;12.35;5.53;;;;;;;;;;5023319;28;20100;-66
2024/02/27 08:37:57;;;;;;;9.68;5.15;;;;;;;;;;5003364;28;20052;-66
2024/02/27 08:40:23;;;;;;;8.68;3.95;;;;;;;;;;5022679;28;20053;-66
2024/02/27 08:42:50;;;;;;;7.15;3.92;;;;;;;;;;5023927;28;20501;-66
2024/02/27 08:45:17;;;;;;;8.15;4.68;;;;;;;;;;5022290;28;20120;-66
2024/02/27 08:47:43;;;;;;;10.32;4.22;;;;;;;;;;5024200;28;20120;-66
2024/02/27 08:50:11;;;;;;;9.05;5.05;;;;;;;;;;5018215;28;20897;-66
2024/02/27 08:52:38;;;;;;;8.68;4.35;;;;;;;;;;5021111;28;20065;-65
2024/02/27 08:55:04;;;;;;;7.80;3.13;;;;;;;;;;5037357;28;20066;-65
2024/02/27 08:57:30;;;;;;;8.18;3.78;;;;;;;;;;5021114;28;20056;-66
2024/02/27 08:59:57;;;;;;;7.28;3.10;;;;;;;;;;5017537;28;20053;-66
2024/02/27 09:02:24;;;;;;;12.52;4.15;;;;;;;;;;5018411;28;20069;-66
2024/02/27 09:04:50;;;;;;;6.15;3.60;;;;;;;;;;5014046;28;20133;-66
2024/02/27 09:07:17;;;;;;;9.32;3.50;;;;;;;;;;5020354;28;20077;-66
2024/02/27 09:09:43;;;;;;;7.93;3.97;;;;;;;;;;5021797;28;20091;-66
2024/02/27 09:12:09;;;;;;;6.53;3.78;;;;;;;;;;5022015;28;20417;-66
2024/02/27 09:14:36;;;;;;;6.85;3.60;;;;;;;;;;5021216;28;20094;-66
2024/02/27 09:17:02;;;;;;;5.80;3.45;;;;;;;;;;5015305;28;20045;-67
2024/02/27 09:19:29;;;;;;;6.97;4.03;;;;;;;;;;5021906;28;20050;-84
2024/02/27 09:21:55;;;;;;;5.63;3.15;;;;;;;;;;5018852;28;20055;-67
2024/02/27 09:24:22;;;;;;;7.05;3.28;;;;;;;;;;5017309;28;20098;-67
2024/02/27 09:26:48;;;;;;;5.65;3.70;;;;;;;;;;5017360;28;20354;-67
2024/02/27 09:29:15;;;;;;;7.63;3.65;;;;;;;;;;5019730;28;20054;-67
2024/02/27 09:31:42;;;;;;;7.57;4.05;;;;;;;;;;5018887;28;20517;-67
2024/02/27 09:34:10;;;;;;;7.10;3.97;;;;;;;;;;5020055;28;20445;-67
2024/02/27 09:36:36;;;;;;;9.57;3.40;;;;;;;;;;5021476;28;20450;-68
2024/02/27 09:39:03;;;;;;;8.35;3.90;;;;;;;;;;5018522;28;20136;-68
2024/02/27 09:41:30;;;;;;;6.50;3.90;;;;;;;;;;5023326;28;20053;-68
2024/02/27 09:43:56;;;;;;;7.22;3.92;;;;;;;;;;5022673;28;20061;-67
2024/02/27 09:46:24;;;;;;;7.00;3.95;;;;;;;;;;5023133;28;20041;-67
2024/02/27 09:48:52;;;;;;;8.60;4.03;;;;;;;;;;5023771;28;20115;-68
2024/02/27 09:51:19;;;;;;;7.88;3.95;;;;;;;;;;5023601;28;20034;-68
2024/02/27 09:53:47;;;;;;;7.30;4.35;;;;;;;;;;5023280;28;20132;-67
2024/02/27 09:56:15;;;;;;;6.10;4.03;;;;;;;;;;5021553;28;20476;-68
2024/02/27 09:58:43;;;;;;;8.25;4.18;;;;;;;;;;5021911;28;20041;-67
2024/02/27 10:01:14;;;;;;;11.88;3.83;;;;;;;;;;5024623;28;20045;-67
2024/02/27 10:03:45;;;;;;;7.72;3.90;;;;;;;;;;5020410;28;20461;-67
2024/02/27 10:06:13;;;;;;;7.38;3.53;;;;;;;;;;5022270;28;20045;-69
2024/02/27 10:08:40;;;;;;;7.65;4.38;;;;;;;;;;5028816;28;20115;-65
2024/02/27 10:11:07;;;;;;;7.30;4.30;;;;;;;;;;5027231;28;20389;-67
2024/02/27 10:13:33;;;;;;;9.18;3.25;;;;;;;;;;5026773;28;20033;-67
2024/02/27 10:16:00;;;;;;;6.65;3.78;;;;;;;;;;5027326;28;20125;-67
2024/02/27 10:18:26;;;;;;;8.05;4.18;;;;;;;;;;5026950;28;20049;-67
2024/02/27 10:20:52;;;;;;;7.13;3.58;;;;;;;;;;5024403;28;20054;-67
2024/02/27 10:23:19;;;;;;;6.32;3.70;;;;;;;;;;5024420;28;20124;-67
2024/02/27 10:25:45;;;;;;;6.90;3.50;;;;;;;;;;5027770;28;20042;-67
2024/02/27 10:28:11;;;;;;;7.25;3.60;;;;;;;;;;5028976;28;20112;-67
2024/02/27 10:30:37;;;;;;;6.70;3.40;;;;;;;;;;5031680;28;20125;-67
2024/02/27 10:33:07;;;;;;;8.85;4.10;;;;;;;;;;5013784;28;20041;-67
2024/02/27 10:35:33;;;;;;;7.88;3.97;;;;;;;;;;5034838;28;20520;-67
2024/02/27 10:37:59;;;;;;;5.72;2.97;;;;;;;;;;5029122;28;20052;-67
2024/02/27 10:40:30;;;;;;;5.38;3.35;;;;;;;;;;5030870;28;20107;-67
2024/02/27 10:42:56;;;;;;;7.38;3.38;;;;;;;;;;5027592;28;20068;-67
2024/02/27 10:45:22;;;;;;;8.38;3.10;;;;;;;;;;5032551;28;20489;-67
2024/02/27 10:47:49;;;;;;;7.93;3.70;;;;;;;;;;5032746;28;20699;-67
2024/02/27 10:50:15;;;;;;;4.80;3.08;;;;;;;;;;5026253;28;20046;-67
2024/02/27 10:52:43;;;;;;;6.25;3.30;;;;;;;;;;5034170;28;20036;-68
2024/02/27 10:55:09;;;;;;;5.65;3.10;;;;;;;;;;5028521;28;20056;-67
2024/02/27 10:57:36;;;;;;;5.38;3.28;;;;;;;;;;5031986;28;20137;-67
2024/02/27 11:00:03;;;;;;;5.97;3.63;;;;;;;;;;5029292;28;20202;-67
2024/02/27 11:02:32;;;;;;;6.55;3.10;;;;;;;;;;5025601;28;20045;-67
2024/02/27 11:05:00;;;;;;;5.47;3.33;;;;;;;;;;5026880;28;20450;-67
2024/02/27 11:07:26;;;;;;;4.68;2.63;;;;;;;;;;5027053;28;20049;-67
2024/02/27 11:09:52;;;;;;;7.25;3.13;;;;;;;;;;5030035;28;20405;-67
2024/02/27 11:12:21;;;;;;;6.05;3.03;;;;;;;;;;5030610;28;20052;-67
2024/02/27 11:14:49;;;;;;;6.75;3.10;;;;;;;;;;5029706;28;20488;-68
2024/02/27 11:17:20;;;;;;;6.20;3.72;;;;;;;;;;5029509;28;20500;-67
2024/02/27 11:19:48;;;;;;;5.82;3.50;;;;;;;;;;5031262;28;20065;-68
2024/02/27 11:22:16;;;;;;;6.82;3.50;;;;;;;;;;5030442;28;20061;-68
2024/02/27 11:24:43;;;;;;;7.05;3.22;;;;;;;;;;5029274;28;20358;-67
2024/02/27 11:27:09;;;;;;;6.88;3.55;;;;;;;;;;5030373;28;20068;-68
2024/02/27 11:29:36;;;;;;;5.18;3.45;;;;;;;;;;5027925;28;20080;-68
2024/02/27 11:32:02;;;;;;;6.57;3.58;;;;;;;;;;5030740;28;20396;-68
2024/02/27 11:34:31;;;;;;;5.75;3.55;;;;;;;;;;5029080;28;20057;-67
2024/02/27 11:37:09;;;;;;;6.28;4.05;;;;;;;;;;5029204;28;20047;-68
2024/02/27 11:39:35;;;;;;;6.22;3.97;;;;;;;;;;5031031;28;20048;-69
2024/02/27 11:42:04;;;;;;;6.53;3.30;;;;;;;;;;5031210;28;20052;-68
2024/02/27 11:44:30;;;;;;;6.53;3.92;;;;;;;;;;5031015;28;20135;-69
2024/02/27 11:46:56;;;;;;;7.63;3.38;;;;;;;;;;5033164;28;20357;-69
2024/02/27 11:49:39;;;;;;;7.85;3.97;;;;;;;;;;5034361;28;20041;-68
2024/02/27 11:52:05;;;;;;;6.72;3.42;;;;;;;;;;5030927;28;20050;-69
2024/02/27 11:54:33;;;;;;;5.40;3.75;;;;;;;;;;5030781;28;20057;-69
2024/02/27 11:57:00;;;;;;;6.50;4.30;;;;;;;;;;5032318;28;20135;-67
2024/02/27 11:59:30;;;;;;;6.03;3.55;;;;;;;;;;5030857;28;20176;-69
2024/02/27 12:02:00;;;;;;;5.65;3.20;;;;;;;;;;5022501;28;20489;-69
2024/02/27 12:04:28;;;;;;;7.38;4.72;;;;;;;;;;5023561;28;20508;-69
2024/02/27 12:06:54;;;;;;;6.95;4.10;;;;;;;;;;5021160;28;20520;-68
2024/02/27 12:09:24;;;;;;;5.78;3.88;;;;;;;;;;5019348;28;20041;-68
2024/02/27 12:11:50;;;;;;;5.78;4.00;;;;;;;;;;5017494;28;20049;-68
2024/02/27 12:14:18;;;;;;;6.60;4.40;;;;;;;;;;5017262;28;20036;-69
2024/02/27 12:16:45;;;;;;;5.65;3.92;;;;;;;;;;5020388;28;20054;-68
2024/02/27 12:19:11;;;;;;;7.75;3.95;;;;;;;;;;5017833;28;20053;-69
2024/02/27 12:21:37;;;;;;;6.53;4.10;;;;;;;;;;5021295;28;20052;-68
2024/02/27 12:24:09;;;;;;;6.97;4.25;;;;;;;;;;5024020;28;20071;-69
2024/02/27 12:26:35;;;;;;;5.53;3.97;;;;;;;;;;5024688;28;20579;-68
2024/02/27 12:29:01;;;;;;;5.43;3.70;;;;;;;;;;5023577;28;20084;-68
2024/02/27 12:31:31;;;;;;;7.93;4.70;;;;;;;;;;5024738;28;20069;-68
2024/02/27 12:33:58;;;;;;;5.85;3.97;;;;;;;;;;5044233;28;20049;-68
2024/02/27 12:36:24;;;;;;;6.00;3.92;;;;;;;;;;5043609;28;20049;-68
2024/02/27 12:38:51;;;;;;;5.72;4.25;;;;;;;;;;5023922;28;20043;-68
2024/02/27 12:41:19;;;;;;;5.82;4.05;;;;;;;;;;5019868;28;20405;-68
2024/02/27 12:43:45;;;;;;;6.40;4.18;;;;;;;;;;5019107;28;20037;-68
2024/02/27 12:46:12;;;;;;;7.13;4.40;;;;;;;;;;5030798;28;20053;-68
2024/02/27 12:48:38;;;;;;;6.25;3.92;;;;;;;;;;5022532;28;20060;-68
2024/02/27 12:51:05;;;;;;;6.15;3.95;;;;;;;;;;5040536;28;20547;-68
2024/02/27 12:53:32;;;;;;;7.50;4.15;;;;;;;;;;5042401;28;20063;-69
2024/02/27 12:55:58;;;;;;;7.45;4.05;;;;;;;;;;5047052;28;20067;-68
2024/02/27 12:58:25;;;;;;;5.50;4.13;;;;;;;;;;5040480;28;20036;-68
2024/02/27 13:00:51;;;;;;;5.93;3.88;;;;;;;;;;5023807;28;20067;-68
2024/02/27 13:03:17;;;;;;;7.57;4.38;;;;;;;;;;5039070;28;20045;-68
2024/02/27 13:05:44;;;;;;;7.47;4.15;;;;;;;;;;5042305;28;20077;-68
2024/02/27 13:08:10;;;;;;;5.53;4.10;;;;;;;;;;5028265;28;20106;-68
2024/02/27 13:10:37;;;;;;;7.18;4.28;;;;;;;;;;5028115;28;20073;-68
2024/02/27 13:13:08;;;;;;;6.68;4.63;;;;;;;;;;5028191;28;20067;-69
2024/02/27 13:15:35;;;;;;;7.28;4.20;;;;;;;;;;5026800;28;20110;-69
2024/02/27 13:18:02;;;;;;;5.72;3.58;;;;;;;;;;5029343;28;20132;-68
2024/02/27 13:20:28;;;;;;;6.10;4.15;;;;;;;;;;5029580;28;20116;-68
2024/02/27 13:22:54;;;;;;;6.93;4.18;;;;;;;;;;5033270;28;20511;-68
2024/02/27 13:25:20;;;;;;;7.32;3.75;;;;;;;;;;5048996;28;20044;-68
2024/02/27 13:27:47;;;;;;;7.53;3.92;;;;;;;;;;5028062;28;20063;-68
2024/02/27 13:30:13;;;;;;;6.03;4.80;;;;;;;;;;5027377;28;20061;-68
2024/02/27 13:32:40;;;;;;;6.50;4.10;;;;;;;;;;5032031;28;20215;-68
2024/02/27 13:35:06;;;;;;;8.25;4.28;;;;;;;;;;5025953;28;20042;-68
2024/02/27 13:37:32;;;;;;;5.97;4.20;;;;;;;;;;5023570;28;20094;-68
2024/02/27 13:39:58;;;;;;;8.07;4.32;;;;;;;;;;5023263;28;20057;-68
2024/02/27 13:42:25;;;;;;;5.90;4.07;;;;;;;;;;5028853;28;20108;-68
2024/02/27 13:44:51;;;;;;;6.88;3.55;;;;;;;;;;5028802;28;20049;-68
2024/02/27 13:47:19;;;;;;;5.65;3.55;;;;;;;;;;5030078;28;20136;-68
2024/02/27 13:49:45;;;;;;;6.53;3.60;;;;;;;;;;5030537;28;20159;-68
2024/02/27 13:52:12;;;;;;;6.53;4.18;;;;;;;;;;5027270;28;20515;-68
2024/02/27 13:54:38;;;;;;;7.88;4.35;;;;;;;;;;5029809;28;20120;-68
2024/02/27 13:57:04;;;;;;;5.05;3.35;;;;;;;;;;5027456;28;20092;-68
2024/02/27 13:59:31;;;;;;;7.10;4.05;;;;;;;;;;5031294;28;20053;-68
2024/02/27 14:01:57;;;;;;;7.00;4.10;;;;;;;;;;5028396;28;20049;-68
2024/02/27 14:04:24;;;;;;;5.88;4.13;;;;;;;;;;5028465;28;20706;-68
2024/02/27 14:06:50;;;;;;;7.80;4.75;;;;;;;;;;5026728;28;20053;-68
2024/02/27 14:09:17;;;;;;;7.60;5.30;;;;;;;;;;5032339;28;20042;-68
2024/02/27 14:11:44;;;;;;;8.95;4.50;;;;;;;;;;5028282;28;20056;-68
2024/02/27 14:14:10;;;;;;;8.80;5.28;;;;;;;;;;5028674;28;20053;-68
2024/02/27 14:16:37;;;;;;;7.45;4.40;;;;;;;;;;5029747;28;20056;-68
2024/02/27 14:19:04;;;;;;;10.27;4.70;;;;;;;;;;5027800;28;20122;-67
2024/02/27 14:21:31;;;;;;;7.88;4.60;;;;;;;;;;5025928;28;20564;-67
2024/02/27 14:23:57;;;;;;;8.63;4.78;;;;;;;;;;5027769;28;20389;-68
2024/02/27 14:26:23;;;;;;;8.70;4.85;;;;;;;;;;5029385;28;20224;-69
2024/02/27 14:28:49;;;;;;;8.90;5.03;;;;;;;;;;5025362;28;20065;-83
2024/02/27 14:31:15;;;;;;;11.95;5.32;;;;;;;;;;5024967;28;20037;-68
2024/02/27 14:33:42;;;;;;;5.68;3.95;;;;;;;;;;5023282;28;20046;-68
2024/02/27 14:36:11;;;;;;;6.47;3.92;;;;;;;;;;5027547;28;20053;-68
2024/02/27 14:38:37;;;;;;;6.82;4.22;;;;;;;;;;5025979;28;20041;-68